sensor_id;sensor_type;location;lat;lon;timestamp;pressure;altitude;pressure_sealevel;temperature;humidity
68117;BME280;54909;54.464;18.498;2024-02-04T00:01:20;100600;;;5.81;76
68117;BME280;54909;54.464;18.498;2024-02-04T00:04:22;100600;;;5.82;76
68117;BME280;54909;54.464;18.498;2024-02-04T00:07:24;100600;;;5.81;76
68117;BME280;54909;54.464;18.498;2024-02-04T00:10:29;100600;;;5.95;76
68117;BME280;54909;54.464;18.498;2024-02-04T00:13:31;100600;;;5.93;76
68117;BME280;54909;54.464;18.498;2024-02-04T00:16:32;100600;;;5.90;76
68117;BME280;54909;54.464;18.498;2024-02-04T00:19:39;100600;;;5.82;76
68117;BME280;54909;54.464;18.498;2024-02-04T00:22:40;100600;;;5.80;75
68117;BME280;54909;54.464;18.498;2024-02-04T00:25:41;100600;;;5.77;75
68117;BME280;54909;54.464;18.498;2024-02-04T00:28:48;100500;;;5.77;75
68117;BME280;54909;54.464;18.498;2024-02-04T00:31:50;100600;;;5.71;76
68117;BME280;54909;54.464;18.498;2024-02-04T00:34:51;100600;;;5.61;76
68117;BME280;54909;54.464;18.498;2024-02-04T00:37:58;100500;;;5.62;76
68117;BME280;54909;54.464;18.498;2024-02-04T00:40:59;100500;;;5.60;76
68117;BME280;54909;54.464;18.498;2024-02-04T00:44:01;100500;;;5.64;76
68117;BME280;54909;54.464;18.498;2024-02-04T00:47:07;100500;;;5.60;76
68117;BME280;54909;54.464;18.498;2024-02-04T00:50:09;100600;;;5.54;76
68117;BME280;54909;54.464;18.498;2024-02-04T00:53:11;100500;;;5.53;76
68117;BME280;54909;54.464;18.498;2024-02-04T00:56:16;100500;;;5.53;76
68117;BME280;54909;54.464;18.498;2024-02-04T00:59:17;100600;;;5.51;76
68117;BME280;54909;54.464;18.498;2024-02-04T01:02:18;100600;;;5.54;76
68117;BME280;54909;54.464;18.498;2024-02-04T01:05:26;100600;;;5.60;76
68117;BME280;54909;54.464;18.498;2024-02-04T01:08:27;100600;;;5.61;76
68117;BME280;54909;54.464;18.498;2024-02-04T01:11:28;100600;;;5.62;76
68117;BME280;54909;54.464;18.498;2024-02-04T01:14:35;100600;;;5.62;76
68117;BME280;54909;54.464;18.498;2024-02-04T01:17:36;100600;;;5.63;76
68117;BME280;54909;54.464;18.498;2024-02-04T01:20:38;100600;;;5.63;76
68117;BME280;54909;54.464;18.498;2024-02-04T01:23:44;100600;;;5.68;76
68117;BME280;54909;54.464;18.498;2024-02-04T01:26:45;100500;;;5.38;76
68117;BME280;54909;54.464;18.498;2024-02-04T01:29:46;100600;;;5.60;76
68117;BME280;54909;54.464;18.498;2024-02-04T01:32:54;100600;;;5.51;76
68117;BME280;54909;54.464;18.498;2024-02-04T01:35:55;100600;;;5.52;76
68117;BME280;54909;54.464;18.498;2024-02-04T01:38:56;100500;;;5.49;76
68117;BME280;54909;54.464;18.498;2024-02-04T01:42:04;100500;;;5.54;76
68117;BME280;54909;54.464;18.498;2024-02-04T01:45:06;100500;;;5.53;76
68117;BME280;54909;54.464;18.498;2024-02-04T01:48:08;100500;;;5.47;76
68117;BME280;54909;54.464;18.498;2024-02-04T01:51:14;100500;;;5.48;76
68117;BME280;54909;54.464;18.498;2024-02-04T01:54:18;100500;;;5.48;76
68117;BME280;54909;54.464;18.498;2024-02-04T01:57:20;100500;;;5.40;76
68117;BME280;54909;54.464;18.498;2024-02-04T02:00:22;100500;;;5.37;76
68117;BME280;54909;54.464;18.498;2024-02-04T02:03:24;100500;;;5.37;76
68117;BME280;54909;54.464;18.498;2024-02-04T02:06:27;100500;;;5.38;76
68117;BME280;54909;54.464;18.498;2024-02-04T02:09:31;100500;;;5.34;76
68117;BME280;54909;54.464;18.498;2024-02-04T02:12:39;100500;;;5.36;76
68117;BME280;54909;54.464;18.498;2024-02-04T02:15:48;100500;;;5.43;76
68117;BME280;54909;54.464;18.498;2024-02-04T02:18:59;100500;;;5.40;76
68117;BME280;54909;54.464;18.498;2024-02-04T02:25:22;100500;;;5.48;76
68117;BME280;54909;54.464;18.498;2024-02-04T02:28:23;100500;;;5.46;76
68117;BME280;54909;54.464;18.498;2024-02-04T02:31:25;100500;;;5.47;76
68117;BME280;54909;54.464;18.498;2024-02-04T02:34:26;100500;;;5.42;76
68117;BME280;54909;54.464;18.498;2024-02-04T02:40:45;100500;;;5.46;76
68117;BME280;54909;54.464;18.498;2024-02-04T02:43:54;100500;;;5.51;76
68117;BME280;54909;54.464;18.498;2024-02-04T02:46:58;100500;;;5.52;76
68117;BME280;54909;54.464;18.498;2024-02-04T02:50:00;100500;;;5.56;76
68117;BME280;54909;54.464;18.498;2024-02-04T02:53:02;100500;;;5.61;76
68117;BME280;54909;54.464;18.498;2024-02-04T02:56:04;100500;;;5.59;76
68117;BME280;54909;54.464;18.498;2024-02-04T02:59:05;100500;;;5.54;76
68117;BME280;54909;54.464;18.498;2024-02-04T03:02:11;100500;;;5.65;76
68117;BME280;54909;54.464;18.498;2024-02-04T03:05:17;100500;;;5.59;76
68117;BME280;54909;54.464;18.498;2024-02-04T03:08:19;100500;;;5.61;76
68117;BME280;54909;54.464;18.498;2024-02-04T03:11:20;100500;;;5.63;76
68117;BME280;54909;54.464;18.498;2024-02-04T03:14:22;100500;;;5.57;76
68117;BME280;54909;54.464;18.498;2024-02-04T03:17:23;100500;;;5.60;76
68117;BME280;54909;54.464;18.498;2024-02-04T03:20:30;100500;;;5.54;76
68117;BME280;54909;54.464;18.498;2024-02-04T03:23:31;100500;;;5.47;77
68117;BME280;54909;54.464;18.498;2024-02-04T03:26:32;100500;;;5.50;76
68117;BME280;54909;54.464;18.498;2024-02-04T03:29:39;100500;;;5.47;77
68117;BME280;54909;54.464;18.498;2024-02-04T03:32:40;100500;;;5.50;77
68117;BME280;54909;54.464;18.498;2024-02-04T03:35:41;100500;;;5.50;77
68117;BME280;54909;54.464;18.498;2024-02-04T03:38:48;100500;;;5.55;76
68117;BME280;54909;54.464;18.498;2024-02-04T03:41:49;100500;;;5.53;77
68117;BME280;54909;54.464;18.498;2024-02-04T03:44:51;100500;;;5.60;76
68117;BME280;54909;54.464;18.498;2024-02-04T03:47:58;100500;;;5.61;76
68117;BME280;54909;54.464;18.498;2024-02-04T03:50:59;100500;;;5.62;76
68117;BME280;54909;54.464;18.498;2024-02-04T03:54:00;100400;;;5.58;77
68117;BME280;54909;54.464;18.498;2024-02-04T03:57:07;100500;;;5.58;77
68117;BME280;54909;54.464;18.498;2024-02-04T04:00:09;100500;;;5.58;77
68117;BME280;54909;54.464;18.498;2024-02-04T04:03:11;100500;;;5.64;77
68117;BME280;54909;54.464;18.498;2024-02-04T04:06:17;100500;;;5.62;77
68117;BME280;54909;54.464;18.498;2024-02-04T04:09:18;100500;;;5.56;77
68117;BME280;54909;54.464;18.498;2024-02-04T04:12:19;100400;;;5.51;77
68117;BME280;54909;54.464;18.498;2024-02-04T04:15:26;100400;;;5.50;77
68117;BME280;54909;54.464;18.498;2024-02-04T04:18:27;100500;;;5.49;77
68117;BME280;54909;54.464;18.498;2024-02-04T04:21:29;100400;;;5.47;77
68117;BME280;54909;54.464;18.498;2024-02-04T04:24:36;100400;;;5.48;77
68117;BME280;54909;54.464;18.498;2024-02-04T04:27:38;100400;;;5.56;77
68117;BME280;54909;54.464;18.498;2024-02-04T04:30:40;100400;;;5.54;77
68117;BME280;54909;54.464;18.498;2024-02-04T04:33:45;100500;;;5.51;77
68117;BME280;54909;54.464;18.498;2024-02-04T04:36:46;100400;;;5.52;77
68117;BME280;54909;54.464;18.498;2024-02-04T04:39:47;100400;;;5.45;77
68117;BME280;54909;54.464;18.498;2024-02-04T04:42:54;100400;;;5.50;77
68117;BME280;54909;54.464;18.498;2024-02-04T04:45:55;100500;;;5.52;77
68117;BME280;54909;54.464;18.498;2024-02-04T04:48:56;100400;;;5.49;77
68117;BME280;54909;54.464;18.498;2024-02-04T04:52:04;100400;;;5.59;76
68117;BME280;54909;54.464;18.498;2024-02-04T04:55:06;100400;;;5.51;76
68117;BME280;54909;54.464;18.498;2024-02-04T04:58:08;100500;;;5.55;76
68117;BME280;54909;54.464;18.498;2024-02-04T05:01:13;100400;;;5.56;76
68117;BME280;54909;54.464;18.498;2024-02-04T05:04:16;100400;;;5.46;76
68117;BME280;54909;54.464;18.498;2024-02-04T05:07:19;100400;;;5.41;76
68117;BME280;54909;54.464;18.498;2024-02-04T05:10:23;100400;;;5.51;76
68117;BME280;54909;54.464;18.498;2024-02-04T05:13:24;100400;;;5.47;76
68117;BME280;54909;54.464;18.498;2024-02-04T05:16:25;100400;;;5.47;76
68117;BME280;54909;54.464;18.498;2024-02-04T05:19:33;100400;;;5.48;76
68117;BME280;54909;54.464;18.498;2024-02-04T05:22:34;100400;;;5.53;76
68117;BME280;54909;54.464;18.498;2024-02-04T05:25:35;100400;;;5.55;75
68117;BME280;54909;54.464;18.498;2024-02-04T05:28:42;100400;;;5.53;75
68117;BME280;54909;54.464;18.498;2024-02-04T05:31:43;100400;;;5.57;75
68117;BME280;54909;54.464;18.498;2024-02-04T05:34:45;100400;;;5.56;76
68117;BME280;54909;54.464;18.498;2024-02-04T05:37:52;100400;;;5.52;76
68117;BME280;54909;54.464;18.498;2024-02-04T05:40:53;100400;;;5.53;76
68117;BME280;54909;54.464;18.498;2024-02-04T05:43:54;100400;;;5.57;76
68117;BME280;54909;54.464;18.498;2024-02-04T05:47:01;100400;;;5.51;77
68117;BME280;54909;54.464;18.498;2024-02-04T05:50:02;100400;;;5.53;77
68117;BME280;54909;54.464;18.498;2024-02-04T05:53:03;100400;;;5.55;77
68117;BME280;54909;54.464;18.498;2024-02-04T05:56:10;100400;;;5.56;77
68117;BME280;54909;54.464;18.498;2024-02-04T05:59:11;100400;;;5.53;77
68117;BME280;54909;54.464;18.498;2024-02-04T06:02:13;100400;;;5.53;77
68117;BME280;54909;54.464;18.498;2024-02-04T06:05:20;100400;;;5.57;77
68117;BME280;54909;54.464;18.498;2024-02-04T06:08:21;100400;;;5.56;77
68117;BME280;54909;54.464;18.498;2024-02-04T06:11:22;100400;;;5.61;77
68117;BME280;54909;54.464;18.498;2024-02-04T06:14:29;100400;;;5.64;77
68117;BME280;54909;54.464;18.498;2024-02-04T06:17:30;100400;;;5.66;78
68117;BME280;54909;54.464;18.498;2024-02-04T06:20:32;100400;;;5.59;78
68117;BME280;54909;54.464;18.498;2024-02-04T06:23:39;100400;;;5.45;80
68117;BME280;54909;54.464;18.498;2024-02-04T06:26:40;100400;;;5.35;81
68117;BME280;54909;54.464;18.498;2024-02-04T06:29:42;100400;;;5.26;82
68117;BME280;54909;54.464;18.498;2024-02-04T06:32:48;100400;;;5.17;83
68117;BME280;54909;54.464;18.498;2024-02-04T06:35:51;100400;;;5.06;84
68117;BME280;54909;54.464;18.498;2024-02-04T06:38:52;100400;;;4.90;85
68117;BME280;54909;54.464;18.498;2024-02-04T06:41:57;100400;;;4.78;87
68117;BME280;54909;54.464;18.498;2024-02-04T06:44:58;100400;;;4.76;87
68117;BME280;54909;54.464;18.498;2024-02-04T06:47:59;100400;;;4.74;87
68117;BME280;54909;54.464;18.498;2024-02-04T06:51:06;100400;;;4.77;87
68117;BME280;54909;54.464;18.498;2024-02-04T06:54:07;100400;;;4.81;86
68117;BME280;54909;54.464;18.498;2024-02-04T06:57:08;100400;;;4.78;87
68117;BME280;54909;54.464;18.498;2024-02-04T07:00:16;100400;;;4.78;88
68117;BME280;54909;54.464;18.498;2024-02-04T07:03:17;100400;;;4.77;88
68117;BME280;54909;54.464;18.498;2024-02-04T07:06:18;100400;;;4.72;89
68117;BME280;54909;54.464;18.498;2024-02-04T07:09:25;100400;;;4.69;90
68117;BME280;54909;54.464;18.498;2024-02-04T07:12:26;100400;;;4.70;90
68117;BME280;54909;54.464;18.498;2024-02-04T07:15:28;100400;;;4.59;91
68117;BME280;54909;54.464;18.498;2024-02-04T07:18:35;100400;;;4.62;91
68117;BME280;54909;54.464;18.498;2024-02-04T07:21:36;100400;;;4.58;92
68117;BME280;54909;54.464;18.498;2024-02-04T07:24:37;100400;;;4.54;92
68117;BME280;54909;54.464;18.498;2024-02-04T07:27:44;100400;;;4.50;93
68117;BME280;54909;54.464;18.498;2024-02-04T07:30:45;100400;;;4.53;92
68117;BME280;54909;54.464;18.498;2024-02-04T07:33:47;100400;;;4.53;93
68117;BME280;54909;54.464;18.498;2024-02-04T07:36:53;100400;;;4.54;92
68117;BME280;54909;54.464;18.498;2024-02-04T07:39:54;100400;;;4.56;93
68117;BME280;54909;54.464;18.498;2024-02-04T07:42:55;100400;;;4.53;93
68117;BME280;54909;54.464;18.498;2024-02-04T07:46:03;100400;;;4.57;93
68117;BME280;54909;54.464;18.498;2024-02-04T07:49:05;100400;;;4.62;93
68117;BME280;54909;54.464;18.498;2024-02-04T07:52:07;100400;;;4.59;93
68117;BME280;54909;54.464;18.498;2024-02-04T07:55:12;100300;;;4.61;93
68117;BME280;54909;54.464;18.498;2024-02-04T07:58:14;100300;;;4.60;93
68117;BME280;54909;54.464;18.498;2024-02-04T08:01:15;100300;;;4.61;93
68117;BME280;54909;54.464;18.498;2024-02-04T08:04:22;100300;;;4.66;93
68117;BME280;54909;54.464;18.498;2024-02-04T08:07:23;100400;;;4.67;93
68117;BME280;54909;54.464;18.498;2024-02-04T08:10:24;100300;;;4.67;93
68117;BME280;54909;54.464;18.498;2024-02-04T08:13:31;100300;;;4.71;93
68117;BME280;54909;54.464;18.498;2024-02-04T08:16:32;100300;;;4.69;93
68117;BME280;54909;54.464;18.498;2024-02-04T08:19:34;100300;;;4.69;93
68117;BME280;54909;54.464;18.498;2024-02-04T08:22:40;100300;;;4.65;93
68117;BME280;54909;54.464;18.498;2024-02-04T08:25:42;100300;;;4.69;93
68117;BME280;54909;54.464;18.498;2024-02-04T08:28:43;100300;;;4.77;93
68117;BME280;54909;54.464;18.498;2024-02-04T08:31:51;100300;;;4.78;93
68117;BME280;54909;54.464;18.498;2024-02-04T08:34:53;100300;;;4.73;93
68117;BME280;54909;54.464;18.498;2024-02-04T08:37:54;100300;;;4.68;93
68117;BME280;54909;54.464;18.498;2024-02-04T08:40:59;100400;;;4.69;93
68117;BME280;54909;54.464;18.498;2024-02-04T08:44:00;100300;;;4.61;93
68117;BME280;54909;54.464;18.498;2024-02-04T08:47:02;100300;;;4.59;93
68117;BME280;54909;54.464;18.498;2024-02-04T08:50:11;100300;;;4.48;93
68117;BME280;54909;54.464;18.498;2024-02-04T08:53:12;100300;;;4.56;93
68117;BME280;54909;54.464;18.498;2024-02-04T08:56:14;100300;;;4.50;94
68117;BME280;54909;54.464;18.498;2024-02-04T08:59:19;100300;;;4.55;93
68117;BME280;54909;54.464;18.498;2024-02-04T09:02:20;100300;;;4.54;94
68117;BME280;54909;54.464;18.498;2024-02-04T09:05:21;100300;;;4.56;94
68117;BME280;54909;54.464;18.498;2024-02-04T09:08:28;100300;;;4.61;94
68117;BME280;54909;54.464;18.498;2024-02-04T09:11:30;100300;;;4.60;94
68117;BME280;54909;54.464;18.498;2024-02-04T09:14:32;100300;;;4.61;94
68117;BME280;54909;54.464;18.498;2024-02-04T09:17:38;100300;;;4.66;94
68117;BME280;54909;54.464;18.498;2024-02-04T09:20:39;100300;;;4.74;94
68117;BME280;54909;54.464;18.498;2024-02-04T09:23:40;100300;;;4.78;94
68117;BME280;54909;54.464;18.498;2024-02-04T09:26:47;100300;;;4.81;93
68117;BME280;54909;54.464;18.498;2024-02-04T09:29:48;100300;;;4.89;92
68117;BME280;54909;54.464;18.498;2024-02-04T09:32:49;100300;;;4.93;93
68117;BME280;54909;54.464;18.498;2024-02-04T09:35:56;100300;;;4.98;92
68117;BME280;54909;54.464;18.498;2024-02-04T09:38:57;100300;;;5.00;92
68117;BME280;54909;54.464;18.498;2024-02-04T09:41:59;100300;;;5.06;91
68117;BME280;54909;54.464;18.498;2024-02-04T09:45:06;100300;;;5.11;91
68117;BME280;54909;54.464;18.498;2024-02-04T09:48:08;100300;;;5.14;91
68117;BME280;54909;54.464;18.498;2024-02-04T09:51:11;100300;;;5.09;91
68117;BME280;54909;54.464;18.498;2024-02-04T09:54:16;100300;;;5.09;91
68117;BME280;54909;54.464;18.498;2024-02-04T09:57:19;100300;;;5.07;92
68117;BME280;54909;54.464;18.498;2024-02-04T10:00:21;100300;;;5.08;92
68117;BME280;54909;54.464;18.498;2024-02-04T10:03:24;100300;;;5.05;92
68117;BME280;54909;54.464;18.498;2024-02-04T10:06:25;100300;;;5.07;92
68117;BME280;54909;54.464;18.498;2024-02-04T10:09:27;100300;;;5.02;92
68117;BME280;54909;54.464;18.498;2024-02-04T10:12:34;100300;;;5.03;92
68117;BME280;54909;54.464;18.498;2024-02-04T10:15:38;100300;;;4.94;93
68117;BME280;54909;54.464;18.498;2024-02-04T10:18:44;100300;;;4.93;93
68117;BME280;54909;54.464;18.498;2024-02-04T10:21:45;100300;;;4.89;94
68117;BME280;54909;54.464;18.498;2024-02-04T10:24:46;100300;;;4.83;94
68117;BME280;54909;54.464;18.498;2024-02-04T10:27:49;100300;;;4.85;94
68117;BME280;54909;54.464;18.498;2024-02-04T10:30:52;100300;;;4.95;94
68117;BME280;54909;54.464;18.498;2024-02-04T10:33:55;100300;;;4.91;94
68117;BME280;54909;54.464;18.498;2024-02-04T10:36:57;100200;;;4.91;94
68117;BME280;54909;54.464;18.498;2024-02-04T10:40:02;100200;;;4.91;94
68117;BME280;54909;54.464;18.498;2024-02-04T10:43:04;100300;;;4.88;94
68117;BME280;54909;54.464;18.498;2024-02-04T10:49:19;100200;;;4.93;94
68117;BME280;54909;54.464;18.498;2024-02-04T10:52:20;100200;;;4.92;94
68117;BME280;54909;54.464;18.498;2024-02-04T10:55:27;100200;;;4.96;94
68117;BME280;54909;54.464;18.498;2024-02-04T10:58:33;100200;;;4.93;95
68117;BME280;54909;54.464;18.498;2024-02-04T11:01:36;100200;;;5.00;95
68117;BME280;54909;54.464;18.498;2024-02-04T11:04:38;100200;;;4.96;95
68117;BME280;54909;54.464;18.498;2024-02-04T11:07:41;100200;;;5.06;96
68117;BME280;54909;54.464;18.498;2024-02-04T11:10:43;100200;;;5.08;95
68117;BME280;54909;54.464;18.498;2024-02-04T11:13:47;100200;;;5.06;94
68117;BME280;54909;54.464;18.498;2024-02-04T11:26:31;100100;;;5.09;95
68117;BME280;54909;54.464;18.498;2024-02-04T11:29:32;100200;;;5.12;95
68117;BME280;54909;54.464;18.498;2024-02-04T11:32:36;100200;;;5.14;94
68117;BME280;54909;54.464;18.498;2024-02-04T11:35:37;100100;;;5.16;95
68117;BME280;54909;54.464;18.498;2024-02-04T11:38:39;100100;;;5.21;94
68117;BME280;54909;54.464;18.498;2024-02-04T11:41:47;100100;;;5.15;94
68117;BME280;54909;54.464;18.498;2024-02-04T11:44:48;100100;;;5.13;94
68117;BME280;54909;54.464;18.498;2024-02-04T11:48:00;100100;;;5.14;94
68117;BME280;54909;54.464;18.498;2024-02-04T11:51:00;100100;;;5.18;94
68117;BME280;54909;54.464;18.498;2024-02-04T11:54:01;100100;;;5.18;94
68117;BME280;54909;54.464;18.498;2024-02-04T11:57:06;100100;;;5.13;94
68117;BME280;54909;54.464;18.498;2024-02-04T12:00:09;100100;;;5.16;94
68117;BME280;54909;54.464;18.498;2024-02-04T12:03:11;100100;;;5.19;93
68117;BME280;54909;54.464;18.498;2024-02-04T12:06:13;100100;;;5.15;94
68117;BME280;54909;54.464;18.498;2024-02-04T12:09:18;100100;;;5.13;94
68117;BME280;54909;54.464;18.498;2024-02-04T12:12:19;100100;;;5.09;94
68117;BME280;54909;54.464;18.498;2024-02-04T12:15:21;100100;;;5.09;94
68117;BME280;54909;54.464;18.498;2024-02-04T12:18:22;100100;;;5.07;94
68117;BME280;54909;54.464;18.498;2024-02-04T12:21:25;100100;;;5.11;94
68117;BME280;54909;54.464;18.498;2024-02-04T12:24:27;100100;;;5.09;94
68117;BME280;54909;54.464;18.498;2024-02-04T12:27:28;100100;;;5.09;94
68117;BME280;54909;54.464;18.498;2024-02-04T12:30:31;100100;;;5.08;95
68117;BME280;54909;54.464;18.498;2024-02-04T12:33:33;100100;;;5.09;94
68117;BME280;54909;54.464;18.498;2024-02-04T12:36:34;100100;;;5.09;94
68117;BME280;54909;54.464;18.498;2024-02-04T12:39:35;100100;;;5.12;94
68117;BME280;54909;54.464;18.498;2024-02-04T12:42:42;100100;;;5.18;94
68117;BME280;54909;54.464;18.498;2024-02-04T12:45:43;100100;;;5.15;93
68117;BME280;54909;54.464;18.498;2024-02-04T12:48:45;100100;;;5.13;94
68117;BME280;54909;54.464;18.498;2024-02-04T12:51:51;100100;;;5.14;94
68117;BME280;54909;54.464;18.498;2024-02-04T12:54:56;100100;;;5.11;94
68117;BME280;54909;54.464;18.498;2024-02-04T12:58:06;100100;;;5.14;93
68117;BME280;54909;54.464;18.498;2024-02-04T13:01:08;100000;;;5.17;93
68117;BME280;54909;54.464;18.498;2024-02-04T13:04:10;100100;;;5.22;93
68117;BME280;54909;54.464;18.498;2024-02-04T13:07:14;100000;;;5.19;93
68117;BME280;54909;54.464;18.498;2024-02-04T13:10:18;100000;;;5.19;93
68117;BME280;54909;54.464;18.498;2024-02-04T13:13:20;100000;;;5.19;93
68117;BME280;54909;54.464;18.498;2024-02-04T13:16:21;100000;;;5.21;93
68117;BME280;54909;54.464;18.498;2024-02-04T13:19:37;100000;;;5.22;93
68117;BME280;54909;54.464;18.498;2024-02-04T13:22:47;100000;;;5.21;93
68117;BME280;54909;54.464;18.498;2024-02-04T13:25:48;100000;;;5.23;93
68117;BME280;54909;54.464;18.498;2024-02-04T13:28:49;100000;;;5.17;93
68117;BME280;54909;54.464;18.498;2024-02-04T13:31:56;100000;;;5.20;94
68117;BME280;54909;54.464;18.498;2024-02-04T13:34:58;100000;;;5.21;93
68117;BME280;54909;54.464;18.498;2024-02-04T13:37:59;100000;;;5.22;93
68117;BME280;54909;54.464;18.498;2024-02-04T13:41:05;100000;;;5.17;93
68117;BME280;54909;54.464;18.498;2024-02-04T13:44:08;100000;;;5.23;93
68117;BME280;54909;54.464;18.498;2024-02-04T13:47:09;100000;;;5.19;94
68117;BME280;54909;54.464;18.498;2024-02-04T13:50:15;100000;;;5.18;93
68117;BME280;54909;54.464;18.498;2024-02-04T13:53:16;100000;;;5.21;92
68117;BME280;54909;54.464;18.498;2024-02-04T13:56:17;100000;;;5.24;93
68117;BME280;54909;54.464;18.498;2024-02-04T13:59:24;100000;;;5.23;93
68117;BME280;54909;54.464;18.498;2024-02-04T14:02:25;100000;;;5.30;92
68117;BME280;54909;54.464;18.498;2024-02-04T14:05:30;100000;;;5.36;91
68117;BME280;54909;54.464;18.498;2024-02-04T14:08:34;100000;;;5.40;91
68117;BME280;54909;54.464;18.498;2024-02-04T14:11:36;100000;;;5.47;90
68117;BME280;54909;54.464;18.498;2024-02-04T14:14:38;100000;;;5.42;90
68117;BME280;54909;54.464;18.498;2024-02-04T14:17:43;100000;;;5.48;90
68117;BME280;54909;54.464;18.498;2024-02-04T14:20:45;100000;;;5.48;90
68117;BME280;54909;54.464;18.498;2024-02-04T14:23:46;100000;;;5.56;89
68117;BME280;54909;54.464;18.498;2024-02-04T14:26:59;100000;;;5.48;89
68117;BME280;54909;54.464;18.498;2024-02-04T14:30:00;100000;;;5.53;90
68117;BME280;54909;54.464;18.498;2024-02-04T14:33:07;100000;;;5.52;90
68117;BME280;54909;54.464;18.498;2024-02-04T14:36:19;100000;;;5.61;89
68117;BME280;54909;54.464;18.498;2024-02-04T14:39:28;100000;;;5.63;88
68117;BME280;54909;54.464;18.498;2024-02-04T14:42:32;0;;;5.68;88
68117;BME280;54909;54.464;18.498;2024-02-04T14:45:33;0;;;5.74;88
68117;BME280;54909;54.464;18.498;2024-02-04T14:48:38;0;;;5.71;88
68117;BME280;54909;54.464;18.498;2024-02-04T14:51:39;0;;;5.78;87
68117;BME280;54909;54.464;18.498;2024-02-04T14:54:40;0;;;5.86;87
68117;BME280;54909;54.464;18.498;2024-02-04T14:57:47;0;;;5.79;88
68117;BME280;54909;54.464;18.498;2024-02-04T15:00:48;100000;;;5.77;88
68117;BME280;54909;54.464;18.498;2024-02-04T15:03:50;100000;;;5.70;89
68117;BME280;54909;54.464;18.498;2024-02-04T15:06:56;0;;;5.59;90
68117;BME280;54909;54.464;18.498;2024-02-04T15:09:57;0;;;5.55;90
68117;BME280;54909;54.464;18.498;2024-02-04T15:13:00;0;;;5.58;90
68117;BME280;54909;54.464;18.498;2024-02-04T15:16:07;0;;;5.56;90
68117;BME280;54909;54.464;18.498;2024-02-04T15:19:10;0;;;5.69;89
68117;BME280;54909;54.464;18.498;2024-02-04T15:22:12;0;;;5.67;89
68117;BME280;54909;54.464;18.498;2024-02-04T15:25:16;100000;;;5.72;88
68117;BME280;54909;54.464;18.498;2024-02-04T15:28:19;0;;;5.69;88
68117;BME280;54909;54.464;18.498;2024-02-04T15:31:21;100000;;;5.73;88
68117;BME280;54909;54.464;18.498;2024-02-04T15:34:26;100000;;;5.79;88
68117;BME280;54909;54.464;18.498;2024-02-04T15:37:32;0;;;5.76;88
68117;BME280;54909;54.464;18.498;2024-02-04T15:40:34;0;;;5.71;89
68117;BME280;54909;54.464;18.498;2024-02-04T15:43:35;0;;;5.72;88
68117;BME280;54909;54.464;18.498;2024-02-04T15:46:37;0;;;5.73;88
68117;BME280;54909;54.464;18.498;2024-02-04T15:49:41;0;;;5.75;88
68117;BME280;54909;54.464;18.498;2024-02-04T15:52:45;0;;;5.75;88
68117;BME280;54909;54.464;18.498;2024-02-04T15:55:47;0;;;5.76;88
68117;BME280;54909;54.464;18.498;2024-02-04T15:58:53;0;;;5.73;88
68117;BME280;54909;54.464;18.498;2024-02-04T16:01:58;0;;;5.82;87
68117;BME280;54909;54.464;18.498;2024-02-04T16:04:59;0;;;5.83;88
68117;BME280;54909;54.464;18.498;2024-02-04T16:08:01;0;;;5.98;86
68117;BME280;54909;54.464;18.498;2024-02-04T16:11:13;0;;;5.87;87
68117;BME280;54909;54.464;18.498;2024-02-04T16:14:34;0;;;5.81;88
68117;BME280;54909;54.464;18.498;2024-02-04T16:17:42;0;;;5.73;89
68117;BME280;54909;54.464;18.498;2024-02-04T16:20:43;0;;;5.68;89
68117;BME280;54909;54.464;18.498;2024-02-04T16:23:45;0;;;5.66;88
68117;BME280;54909;54.464;18.498;2024-02-04T16:26:46;0;;;5.67;88
68117;BME280;54909;54.464;18.498;2024-02-04T16:29:47;0;;;5.78;87
68117;BME280;54909;54.464;18.498;2024-02-04T16:32:49;0;;;5.83;87
68117;BME280;54909;54.464;18.498;2024-02-04T16:35:50;0;;;5.91;86
68117;BME280;54909;54.464;18.498;2024-02-04T16:38:51;0;;;6.00;85
68117;BME280;54909;54.464;18.498;2024-02-04T16:41:58;0;;;6.05;86
68117;BME280;54909;54.464;18.498;2024-02-04T16:44:59;0;;;6.08;85
68117;BME280;54909;54.464;18.498;2024-02-04T16:48:00;0;;;6.17;84
68117;BME280;54909;54.464;18.498;2024-02-04T16:51:08;0;;;6.21;84
68117;BME280;54909;54.464;18.498;2024-02-04T16:54:09;100000;;;6.25;84
68117;BME280;54909;54.464;18.498;2024-02-04T16:57:10;0;;;6.29;84
68117;BME280;54909;54.464;18.498;2024-02-04T17:00:18;0;;;6.29;84
68117;BME280;54909;54.464;18.498;2024-02-04T17:03:19;0;;;6.40;83
68117;BME280;54909;54.464;18.498;2024-02-04T17:06:23;0;;;6.46;82
68117;BME280;54909;54.464;18.498;2024-02-04T17:09:27;0;;;6.42;82
68117;BME280;54909;54.464;18.498;2024-02-04T17:12:29;0;;;6.49;83
68117;BME280;54909;54.464;18.498;2024-02-04T17:15:31;0;;;6.48;83
68117;BME280;54909;54.464;18.498;2024-02-04T17:18:48;0;;;6.47;83
68117;BME280;54909;54.464;18.498;2024-02-04T17:21:56;0;;;6.43;83
68117;BME280;54909;54.464;18.498;2024-02-04T17:25:02;0;;;6.46;83
68117;BME280;54909;54.464;18.498;2024-02-04T17:28:05;0;;;6.50;83
68117;BME280;54909;54.464;18.498;2024-02-04T17:31:08;0;;;6.45;83
68117;BME280;54909;54.464;18.498;2024-02-04T17:34:09;0;;;6.42;83
68117;BME280;54909;54.464;18.498;2024-02-04T17:37:11;0;;;6.31;85
68117;BME280;54909;54.464;18.498;2024-02-04T17:40:12;0;;;6.18;85
68117;BME280;54909;54.464;18.498;2024-02-04T17:43:13;0;;;6.06;87
68117;BME280;54909;54.464;18.498;2024-02-04T17:46:14;0;;;5.96;88
68117;BME280;54909;54.464;18.498;2024-02-04T17:49:16;0;;;5.83;89
68117;BME280;54909;54.464;18.498;2024-02-04T17:52:20;0;;;5.85;89